Time;durP1;ratioP1;P1;durP2;ratioP2;P2;SDS_P1;SDS_P2;PMS_P1;PMS_P2;Temp;Humidity;BMP_temperature;BMP_pressure;BME280_temperature;BME280_humidity;BME280_pressure;Samples;Min_cycle;Max_cycle;Signal;HPM_P1;HPM_P2
2022/06/25 00:00:48;;;;;;;4.13;2.25;;;17.00;99.90;;;;;;4852934;29;20054;-69
2022/06/25 00:03:15;;;;;;;5.38;2.25;;;16.90;99.90;;;;;;4843957;29;20486;-66
2022/06/25 00:05:43;;;;;;;3.15;1.85;;;16.90;99.90;;;;;;4839912;29;20052;-66
2022/06/25 00:08:10;;;;;;;3.92;2.13;;;16.90;99.90;;;;;;4852891;29;20124;-67
2022/06/25 00:10:37;;;;;;;3.92;2.25;;;16.90;99.90;;;;;;4844156;29;20072;-70
2022/06/25 00:13:05;;;;;;;3.90;2.30;;;16.90;99.90;;;;;;4847134;29;20054;-68
2022/06/25 00:15:32;;;;;;;4.43;2.10;;;16.90;99.90;;;;;;4857289;29;20486;-67
2022/06/25 00:18:00;;;;;;;4.53;2.10;;;16.90;99.90;;;;;;4862080;29;20053;-69
2022/06/25 00:20:28;;;;;;;3.35;2.15;;;16.90;99.90;;;;;;4848630;29;20386;-70
2022/06/25 00:22:55;;;;;;;7.35;2.25;;;16.90;99.90;;;;;;4854774;29;20117;-68
2022/06/25 00:25:22;;;;;;;6.68;2.53;;;16.90;99.90;;;;;;4854874;29;20040;-68
2022/06/25 00:27:50;;;;;;;5.68;2.67;;;16.90;99.90;;;;;;4848249;29;20050;-66
2022/06/25 00:30:17;;;;;;;3.80;2.53;;;16.80;99.90;;;;;;4853137;29;20428;-66
2022/06/25 00:32:44;;;;;;;4.32;2.60;;;16.80;99.90;;;;;;4840840;29;20050;-67
2022/06/25 00:35:12;;;;;;;5.05;2.30;;;16.80;99.90;;;;;;4840671;29;20434;-67
2022/06/25 00:37:40;;;;;;;3.90;2.63;;;16.80;99.90;;;;;;4840636;29;20064;-68
2022/06/25 00:40:09;;;;;;;5.05;2.40;;;16.80;99.90;;;;;;4852173;29;20455;-67
2022/06/25 00:42:44;;;;;;;5.20;2.40;;;16.80;99.90;;;;;;4862842;29;20048;-67
2022/06/25 00:45:12;;;;;;;4.35;2.25;;;16.80;99.90;;;;;;4843819;29;20073;-68
2022/06/25 00:47:42;;;;;;;5.57;2.58;;;16.80;99.90;;;;;;4854687;29;20101;-67
2022/06/25 00:50:10;;;;;;;3.80;2.83;;;16.80;99.90;;;;;;4850894;29;20064;-67
2022/06/25 00:52:42;;;;;;;6.28;2.72;;;16.70;99.90;;;;;;4842710;29;20042;-68
2022/06/25 00:55:16;;;;;;;6.13;2.70;;;16.70;99.90;;;;;;4852243;29;20600;-67
2022/06/25 00:57:44;;;;;;;4.32;2.28;;;16.70;99.90;;;;;;4851545;29;20082;-66
2022/06/25 01:00:17;;;;;;;4.82;2.72;;;16.80;99.90;;;;;;4854981;29;20663;-69
2022/06/25 01:02:47;;;;;;;6.13;2.97;;;16.70;99.90;;;;;;4844564;29;20152;-68
2022/06/25 01:05:16;;;;;;;4.28;2.85;;;16.70;99.90;;;;;;4849126;29;20034;-66
2022/06/25 01:07:46;;;;;;;4.75;2.92;;;16.70;99.90;;;;;;4847113;29;20056;-68
2022/06/25 01:10:14;;;;;;;5.72;2.83;;;16.70;99.90;;;;;;4857173;29;20073;-69
2022/06/25 01:12:42;;;;;;;7.55;3.00;;;16.70;99.90;;;;;;4845282;29;20045;-69
2022/06/25 01:15:16;;;;;;;4.70;2.67;;;16.70;99.90;;;;;;4842228;29;20068;-69
2022/06/25 01:17:49;;;;;;;5.65;2.92;;;16.70;99.90;;;;;;4851277;29;20053;-68
2022/06/25 01:20:19;;;;;;;3.67;2.47;;;16.70;99.90;;;;;;4844776;29;20501;-69
2022/06/25 01:22:47;;;;;;;4.90;2.80;;;16.80;99.90;;;;;;4836763;29;20506;-69
2022/06/25 01:25:15;;;;;;;5.78;2.85;;;16.70;99.90;;;;;;4853242;29;20056;-68
2022/06/25 01:27:43;;;;;;;5.57;2.60;;;16.70;99.90;;;;;;4843739;29;20050;-68
2022/06/25 01:30:13;;;;;;;5.35;2.65;;;16.80;99.90;;;;;;4851585;29;20054;-69
2022/06/25 01:32:41;;;;;;;5.22;2.70;;;16.80;99.90;;;;;;4839685;29;20505;-68
2022/06/25 01:35:09;;;;;;;4.03;2.30;;;16.80;99.90;;;;;;4839832;29;20081;-68
2022/06/25 01:37:37;;;;;;;4.45;2.45;;;16.80;99.90;;;;;;4823377;29;20054;-68
2022/06/25 01:40:05;;;;;;;4.65;2.33;;;16.80;99.90;;;;;;4820618;29;20491;-70
2022/06/25 01:45:18;;;;;;;6.63;2.50;;;16.80;99.90;;;;;;4853663;29;20105;-69
2022/06/25 01:47:46;;;;;;;6.10;2.78;;;16.80;99.90;;;;;;4831034;29;20092;-67
2022/06/25 01:50:13;;;;;;;6.05;2.60;;;16.80;99.90;;;;;;4843232;29;20144;-67
2022/06/25 01:52:46;;;;;;;4.10;2.63;;;16.80;99.90;;;;;;4832042;29;20129;-67
2022/06/25 01:55:15;;;;;;;4.32;2.50;;;16.80;99.90;;;;;;4872008;29;20054;-67
2022/06/25 01:57:42;;;;;;;5.57;2.40;;;16.80;99.90;;;;;;4813527;29;20081;-66
2022/06/25 02:00:14;;;;;;;3.78;2.13;;;16.80;99.90;;;;;;4849954;29;20054;-68
2022/06/25 02:02:46;;;;;;;6.00;2.55;;;16.80;99.90;;;;;;4840357;29;20576;-68
2022/06/25 02:05:15;;;;;;;4.95;2.20;;;16.80;99.90;;;;;;4841349;29;20122;-66
2022/06/25 02:07:44;;;;;;;4.25;2.20;;;16.80;99.90;;;;;;4851792;29;20045;-67
2022/06/25 02:10:15;;;;;;;4.38;2.20;;;16.70;99.90;;;;;;4864167;29;20512;-67
2022/06/25 02:12:43;;;;;;;5.90;2.55;;;16.70;99.90;;;;;;4856290;29;20490;-67
2022/06/25 02:15:10;;;;;;;3.50;2.17;;;16.70;99.90;;;;;;4849637;29;20056;-68
2022/06/25 02:17:37;;;;;;;4.65;2.15;;;16.70;99.90;;;;;;4857048;29;20105;-68
2022/06/25 02:20:05;;;;;;;4.18;1.90;;;16.70;99.90;;;;;;4856545;29;20577;-66
2022/06/25 02:22:32;;;;;;;5.63;2.38;;;16.60;99.90;;;;;;4840742;29;20445;-68
2022/06/25 02:24:59;;;;;;;5.07;2.53;;;16.60;99.90;;;;;;4852203;29;20077;-67
2022/06/25 02:27:27;;;;;;;8.02;2.35;;;16.60;99.90;;;;;;4832643;29;20057;-68
2022/06/25 02:29:54;;;;;;;4.18;1.88;;;16.60;99.90;;;;;;4837120;29;20063;-67
2022/06/25 02:32:23;;;;;;;4.75;2.00;;;16.70;99.90;;;;;;4844089;29;20045;-68
2022/06/25 02:34:51;;;;;;;4.13;2.10;;;16.70;99.90;;;;;;4870027;29;20622;-68
2022/06/25 02:37:18;;;;;;;4.75;2.30;;;16.70;99.90;;;;;;4857191;29;20141;-68
2022/06/25 02:39:45;;;;;;;3.80;2.08;;;16.70;99.90;;;;;;4847681;29;20474;-67
2022/06/25 02:42:13;;;;;;;3.83;1.92;;;16.70;99.90;;;;;;4840277;29;20072;-68
2022/06/25 02:44:40;;;;;;;3.47;1.90;;;16.70;99.90;;;;;;4840286;29;20069;-68
2022/06/25 02:47:07;;;;;;;3.92;2.25;;;16.70;99.90;;;;;;4856142;29;20136;-68
2022/06/25 02:49:52;;;;;;;3.90;2.30;;;16.70;99.90;;;;;;4846840;29;20101;-67
2022/06/25 02:52:19;;;;;;;4.22;2.13;;;16.70;99.90;;;;;;4839072;29;20045;-67
2022/06/25 02:54:47;;;;;;;4.68;2.10;;;16.60;99.90;;;;;;4844050;29;20054;-67
2022/06/25 03:00:04;;;;;;;4.90;2.30;;;16.60;99.90;;;;;;4836194;29;20085;-70
2022/06/25 03:02:32;;;;;;;3.40;2.20;;;16.70;99.90;;;;;;4854957;29;20568;-67
2022/06/25 03:05:02;;;;;;;4.50;2.42;;;16.70;99.90;;;;;;4861493;29;20124;-66
2022/06/25 03:07:30;;;;;;;5.18;2.22;;;16.70;99.90;;;;;;4855642;29;20056;-66
2022/06/25 03:09:58;;;;;;;6.07;2.42;;;16.80;99.90;;;;;;4855347;29;20053;-67
2022/06/25 03:12:26;;;;;;;5.20;2.83;;;16.70;99.90;;;;;;4840272;29;20057;-65
2022/06/25 03:15:04;;;;;;;6.43;2.40;;;16.70;99.90;;;;;;4871145;29;20045;-68
2022/06/25 03:17:31;;;;;;;4.55;2.20;;;16.80;99.90;;;;;;4849998;29;20508;-70
2022/06/25 03:20:17;;;;;;;4.45;2.47;;;16.80;99.90;;;;;;4856772;29;20033;-66
2022/06/25 03:22:50;;;;;;;5.15;2.50;;;16.80;99.90;;;;;;4839798;29;20136;-67
2022/06/25 03:25:18;;;;;;;4.68;2.08;;;16.80;99.90;;;;;;4847681;29;20041;-67
2022/06/25 03:27:45;;;;;;;8.02;2.10;;;16.80;99.90;;;;;;4856188;29;20042;-67
2022/06/25 03:30:16;;;;;;;7.88;2.42;;;16.80;99.90;;;;;;4868063;29;20156;-67
2022/06/25 03:32:45;;;;;;;6.90;2.30;;;16.90;99.90;;;;;;4870360;29;20463;-68
2022/06/25 03:35:47;;;;;;;;;;;16.90;99.90;;;;;;4840349;29;20053;-67
2022/06/25 03:38:23;;;;;;;4.95;2.25;;;16.90;99.90;;;;;;4849896;29;19952;-67
2022/06/25 03:41:32;;;;;;;5.95;2.20;;;16.90;99.90;;;;;;4839580;29;20545;-66
2022/06/25 03:43:41;;;;;;;4.65;2.00;;;17.00;99.90;;;;;;4869472;29;20069;-69
2022/06/25 03:46:09;;;;;;;6.07;2.38;;;17.00;99.90;;;;;;4855097;29;20041;-67
2022/06/25 03:48:36;;;;;;;6.68;2.05;;;16.90;99.90;;;;;;4844193;29;20042;-67
2022/06/25 03:51:16;;;;;;;5.30;2.30;;;16.90;99.90;;;;;;4854486;29;20524;-67
2022/06/25 03:53:44;;;;;;;4.50;2.08;;;17.00;99.90;;;;;;4840549;29;20080;-68
2022/06/25 03:56:12;;;;;;;5.70;2.08;;;17.10;99.90;;;;;;4839783;29;20054;-68
2022/06/25 03:58:42;;;;;;;5.30;2.00;;;17.10;99.90;;;;;;4849286;29;20678;-68
2022/06/25 04:01:10;;;;;;;3.55;2.00;;;17.10;99.90;;;;;;4854495;29;20437;-68
2022/06/25 04:03:37;;;;;;;3.88;2.30;;;17.10;99.90;;;;;;4854821;29;20046;-66
2022/06/25 04:06:07;;;;;;;5.28;2.17;;;17.10;99.90;;;;;;4856775;29;20501;-66
2022/06/25 04:08:40;;;;;;;4.18;2.08;;;17.10;99.90;;;;;;4858080;29;20615;-68
2022/06/25 04:11:10;;;;;;;5.47;2.10;;;17.10;99.90;;;;;;4841999;29;20045;-69
2022/06/25 04:13:49;;;;;;;5.80;2.15;;;17.20;99.90;;;;;;4843383;29;20113;-67
2022/06/25 04:16:17;;;;;;;3.75;2.00;;;17.20;99.90;;;;;;4860707;29;20128;-67
2022/06/25 04:18:45;;;;;;;5.25;2.38;;;17.10;99.90;;;;;;4842530;29;20607;-67
2022/06/25 04:21:14;;;;;;;3.40;2.08;;;17.10;99.90;;;;;;4842039;29;20038;-67
2022/06/25 04:23:42;;;;;;;4.07;2.20;;;17.10;99.90;;;;;;4828703;29;20132;-67
2022/06/25 04:26:13;;;;;;;10.02;2.40;;;17.20;99.90;;;;;;4839364;29;20049;-69
2022/06/25 04:31:44;;;;;;;4.10;2.00;;;17.20;99.90;;;;;;4839102;29;20599;-67
2022/06/25 04:34:16;;;;;;;4.40;2.15;;;17.20;99.90;;;;;;4835768;29;20504;-68
2022/06/25 04:36:47;;;;;;;4.72;2.10;;;17.20;99.90;;;;;;4841507;29;20053;-69
2022/06/25 04:39:22;;;;;;;4.65;1.85;;;17.20;99.90;;;;;;4869507;29;20127;-71
2022/06/25 04:41:49;;;;;;;6.20;2.35;;;17.20;99.90;;;;;;4852732;29;20049;-69
2022/06/25 04:44:21;;;;;;;5.05;2.25;;;17.20;99.90;;;;;;4856338;29;20527;-68
2022/06/25 04:46:49;;;;;;;5.13;2.50;;;17.30;99.90;;;;;;4857615;29;20128;-68
2022/06/25 04:49:21;;;;;;;4.68;2.10;;;17.30;99.90;;;;;;4860934;29;20053;-68
2022/06/25 04:51:49;;;;;;;5.22;2.35;;;17.30;99.90;;;;;;4841514;29;20507;-66
2022/06/25 04:54:16;;;;;;;6.70;2.15;;;17.30;99.90;;;;;;4839522;29;20038;-67
2022/06/25 04:56:52;;;;;;;5.80;2.33;;;17.30;99.90;;;;;;4838144;29;20060;-70
2022/06/25 04:59:20;;;;;;;4.72;2.45;;;17.40;99.90;;;;;;4826453;29;20060;-67
2022/06/25 05:01:51;;;;;;;5.40;2.30;;;17.40;99.90;;;;;;4857278;29;20052;-68
2022/06/25 05:04:27;;;;;;;4.88;2.28;;;17.30;99.90;;;;;;4853906;29;20407;-68
2022/06/25 05:06:55;;;;;;;5.70;2.17;;;17.40;99.90;;;;;;4835478;29;20060;-68
2022/06/25 05:09:22;;;;;;;3.85;2.45;;;17.40;99.90;;;;;;4833803;29;20186;-68
2022/06/25 05:11:50;;;;;;;5.47;2.10;;;17.40;99.90;;;;;;4837643;29;20141;-67
2022/06/25 05:14:17;;;;;;;9.00;2.40;;;17.40;99.90;;;;;;4837177;29;20136;-67
2022/06/25 05:16:46;;;;;;;6.25;3.50;;;17.40;99.90;;;;;;4853835;29;20112;-68
2022/06/25 05:19:14;;;;;;;4.82;2.47;;;17.50;99.90;;;;;;4841510;29;20068;-68
2022/06/25 05:21:41;;;;;;;3.78;2.60;;;17.50;99.90;;;;;;4847304;29;20045;-66
2022/06/25 05:24:09;;;;;;;4.88;2.65;;;17.50;99.90;;;;;;4857771;29;20136;-67
2022/06/25 05:26:36;;;;;;;4.80;2.22;;;17.60;99.90;;;;;;4821959;29;20052;-67
2022/06/25 05:29:04;;;;;;;6.55;2.38;;;17.70;99.90;;;;;;4864781;29;20128;-67
2022/06/25 05:31:32;;;;;;;6.18;3.08;;;17.80;99.90;;;;;;4826228;29;20477;-67
2022/06/25 05:33:59;;;;;;;7.95;2.53;;;17.90;99.90;;;;;;4838542;29;20505;-68
2022/06/25 05:36:26;;;;;;;5.00;2.45;;;17.90;99.90;;;;;;4838692;29;20408;-67
2022/06/25 05:38:54;;;;;;;4.75;2.42;;;17.90;99.90;;;;;;4853215;29;20054;-68
2022/06/25 05:41:22;;;;;;;4.70;2.13;;;18.00;99.90;;;;;;4832402;29;20516;-68
2022/06/25 05:43:49;;;;;;;3.88;2.15;;;18.10;99.90;;;;;;4857209;29;20077;-68
2022/06/25 05:46:16;;;;;;;5.88;2.45;;;18.10;99.90;;;;;;4857596;29;20037;-70
2022/06/25 05:48:43;;;;;;;3.30;2.30;;;18.30;99.90;;;;;;4849985;29;20474;-71
2022/06/25 05:51:11;;;;;;;10.38;2.83;;;18.40;99.90;;;;;;4850311;29;20137;-69
2022/06/25 05:53:44;;;;;;;4.25;2.60;;;18.50;99.90;;;;;;4855281;29;20067;-69
2022/06/25 05:56:11;;;;;;;5.53;3.00;;;18.50;99.90;;;;;;4858339;29;20124;-69
2022/06/25 05:58:39;;;;;;;4.00;2.70;;;18.50;99.90;;;;;;4856829;29;20068;-67
2022/06/25 06:01:06;;;;;;;4.93;2.22;;;18.50;99.90;;;;;;4856063;29;20076;-69
2022/06/25 06:03:33;;;;;;;7.10;2.50;;;18.40;99.90;;;;;;4832513;29;20432;-69
2022/06/25 06:06:00;;;;;;;9.98;4.93;;;18.50;99.90;;;;;;4855000;29;20500;-68
2022/06/25 06:08:28;;;;;;;4.28;2.80;;;18.60;99.90;;;;;;4854224;29;20042;-67
2022/06/25 06:10:55;;;;;;;4.43;2.53;;;18.50;99.90;;;;;;4856827;29;20042;-68
2022/06/25 06:13:22;;;;;;;4.03;2.60;;;18.50;99.90;;;;;;4855006;29;20065;-67
2022/06/25 06:15:49;;;;;;;5.22;2.75;;;18.60;99.90;;;;;;4852665;29;20404;-67
2022/06/25 06:18:17;;;;;;;5.07;3.08;;;18.80;99.90;;;;;;4850873;29;20049;-67
2022/06/25 06:20:44;;;;;;;4.10;2.67;;;18.90;99.90;;;;;;4857110;29;20141;-68
2022/06/25 06:23:11;;;;;;;5.22;3.05;;;18.90;99.90;;;;;;4857389;29;20421;-68
2022/06/25 06:25:39;;;;;;;6.82;3.53;;;18.90;99.90;;;;;;4846057;29;20386;-68
2022/06/25 06:28:06;;;;;;;7.07;3.45;;;18.90;99.90;;;;;;4850014;29;20041;-68
2022/06/25 06:30:33;;;;;;;14.00;6.28;;;19.10;99.90;;;;;;4848890;29;20506;-69
2022/06/25 06:33:03;;;;;;;5.47;3.33;;;19.10;99.90;;;;;;4841831;29;20057;-69
2022/06/25 06:35:31;;;;;;;5.57;3.45;;;19.10;99.90;;;;;;4854975;29;20110;-68
2022/06/25 06:37:59;;;;;;;6.97;3.75;;;19.10;99.90;;;;;;4855963;29;20060;-67
2022/06/25 06:40:26;;;;;;;6.22;3.42;;;19.00;99.90;;;;;;4855960;29;20065;-67
2022/06/25 06:42:55;;;;;;;6.05;3.58;;;19.00;99.90;;;;;;4833509;29;20049;-69
2022/06/25 06:45:23;;;;;;;5.82;3.03;;;19.20;99.90;;;;;;4856379;29;20046;-69
2022/06/25 06:47:50;;;;;;;6.43;3.38;;;19.30;99.90;;;;;;4854054;29;20046;-68
2022/06/25 06:50:17;;;;;;;5.57;3.40;;;19.40;99.90;;;;;;4845688;29;20053;-68
2022/06/25 06:52:45;;;;;;;5.72;3.60;;;19.40;99.90;;;;;;4856658;29;20096;-67
2022/06/25 06:55:12;;;;;;;5.20;3.25;;;19.40;99.90;;;;;;4850468;29;20136;-72
2022/06/25 06:57:39;;;;;;;5.93;3.50;;;19.20;99.90;;;;;;4843864;29;20444;-69
2022/06/25 07:00:12;;;;;;;6.95;4.25;;;19.30;99.90;;;;;;4834299;29;20054;-68
2022/06/25 07:02:39;;;;;;;4.70;3.40;;;18.90;99.90;;;;;;4855990;29;20084;-69
2022/06/25 07:05:07;;;;;;;6.47;4.00;;;19.00;99.90;;;;;;4845317;29;20408;-69
2022/06/25 07:07:35;;;;;;;5.28;3.70;;;18.90;99.90;;;;;;4847411;29;20068;-69
2022/06/25 07:10:03;;;;;;;8.23;3.72;;;19.10;99.90;;;;;;4864057;29;20054;-67
2022/06/25 07:12:31;;;;;;;7.72;4.30;;;19.10;99.90;;;;;;4849789;29;20046;-68
2022/06/25 07:14:58;;;;;;;11.05;5.30;;;19.10;99.90;;;;;;4862580;29;20110;-68
2022/06/25 07:17:26;;;;;;;6.38;4.93;;;19.10;99.90;;;;;;4845331;29;20562;-69
2022/06/25 07:19:53;;;;;;;7.70;4.78;;;19.10;99.90;;;;;;4838536;29;20057;-67
2022/06/25 07:22:20;;;;;;;9.25;4.45;;;19.00;99.90;;;;;;4842221;29;20554;-69
2022/06/25 07:24:47;;;;;;;6.63;4.03;;;19.10;99.90;;;;;;4840791;29;20045;-69
2022/06/25 07:27:15;;;;;;;5.45;4.13;;;19.20;99.90;;;;;;4823214;29;20045;-68
2022/06/25 07:29:42;;;;;;;6.60;3.92;;;19.30;99.90;;;;;;4840411;29;20053;-68
2022/06/25 07:32:10;;;;;;;6.28;4.13;;;19.30;99.90;;;;;;4838183;29;20061;-68
2022/06/25 07:34:38;;;;;;;8.65;3.85;;;19.40;99.90;;;;;;4837442;29;20522;-68
2022/06/25 07:37:05;;;;;;;6.78;4.35;;;19.40;99.90;;;;;;4856486;29;20135;-68
2022/06/25 07:39:32;;;;;;;6.50;4.50;;;19.30;99.90;;;;;;4850233;29;20053;-69
2022/06/25 07:42:00;;;;;;;6.85;4.07;;;19.30;99.90;;;;;;4848004;29;20061;-67
2022/06/25 07:44:27;;;;;;;8.13;3.67;;;19.40;99.90;;;;;;4855334;29;20046;-69
2022/06/25 07:46:54;;;;;;;5.60;3.90;;;19.20;99.90;;;;;;4846634;29;20149;-69
2022/06/25 07:49:21;;;;;;;4.85;3.50;;;19.40;99.90;;;;;;4843712;29;20052;-68
2022/06/25 07:51:59;;;;;;;7.85;5.15;;;19.40;99.90;;;;;;4860184;29;20061;-69
2022/06/25 07:54:33;;;;;;;7.22;4.18;;;19.50;99.90;;;;;;4845349;29;20383;-67
2022/06/25 07:57:00;;;;;;;7.50;4.35;;;19.70;99.90;;;;;;4829421;29;20517;-69
2022/06/25 07:59:28;;;;;;;11.35;5.45;;;19.80;99.90;;;;;;4856060;29;20535;-68
2022/06/25 08:01:55;;;;;;;5.80;3.95;;;20.10;99.90;;;;;;4844947;29;20049;-69
2022/06/25 08:04:22;;;;;;;5.88;3.65;;;20.40;99.90;;;;;;4848489;29;20042;-68
2022/06/25 08:06:50;;;;;;;8.98;4.60;;;20.60;99.90;;;;;;4847336;29;20042;-68
2022/06/25 08:09:17;;;;;;;7.82;3.70;;;21.00;99.90;;;;;;4845182;29;20042;-69
2022/06/25 08:11:44;;;;;;;5.00;3.38;;;21.40;99.90;;;;;;4845818;29;20042;-68
2022/06/25 08:14:12;;;;;;;5.78;3.40;;;21.70;99.90;;;;;;4847934;29;20053;-69
2022/06/25 08:16:39;;;;;;;6.22;3.25;;;21.60;99.90;;;;;;4847993;29;20567;-69
2022/06/25 08:19:07;;;;;;;8.35;5.05;;;21.60;99.90;;;;;;4838123;29;20057;-69
2022/06/25 08:21:34;;;;;;;5.53;4.25;;;21.90;99.90;;;;;;4851694;29;20072;-67
2022/06/25 08:24:01;;;;;;;8.38;4.32;;;21.90;99.90;;;;;;4853732;29;20545;-68
2022/06/25 08:26:29;;;;;;;6.30;3.47;;;22.20;99.90;;;;;;4859077;29;20060;-71
2022/06/25 08:28:56;;;;;;;6.72;3.60;;;22.30;99.90;;;;;;4851906;29;20033;-68
2022/06/25 08:31:24;;;;;;;4.63;2.72;;;22.40;99.90;;;;;;4846656;29;20076;-68
2022/06/25 08:33:51;;;;;;;6.03;2.60;;;22.10;99.90;;;;;;4846330;29;20050;-69
2022/06/25 08:36:18;;;;;;;3.38;2.03;;;22.10;99.90;;;;;;4847763;29;20062;-68
2022/06/25 08:38:46;;;;;;;4.05;2.17;;;22.00;99.90;;;;;;4839284;29;20110;-67
2022/06/25 08:41:14;;;;;;;4.38;2.13;;;21.90;99.90;;;;;;4840958;29;20515;-68
2022/06/25 08:43:41;;;;;;;3.30;2.30;;;21.90;99.90;;;;;;4843367;29;20045;-68
2022/06/25 08:46:09;;;;;;;6.38;2.20;;;21.90;99.90;;;;;;4859112;29;20048;-68
2022/06/25 08:48:40;;;;;;;4.03;2.20;;;22.20;99.90;;;;;;4854886;29;20056;-66
2022/06/25 08:51:08;;;;;;;3.77;2.43;;;22.50;99.90;;;;;;4851000;29;20065;-69
2022/06/25 08:53:37;;;;;;;4.30;2.50;;;22.70;99.90;;;;;;4847241;29;20662;-67
2022/06/25 08:56:04;;;;;;;5.53;2.45;;;22.80;99.90;;;;;;4842495;29;20049;-68
2022/06/25 08:58:32;;;;;;;4.38;2.20;;;22.90;99.90;;;;;;4859277;29;20053;-68
2022/06/25 09:01:00;;;;;;;3.83;2.00;;;23.10;99.90;;;;;;4856933;29;20081;-67
2022/06/25 09:03:27;;;;;;;3.63;2.05;;;23.00;99.90;;;;;;4851355;29;20161;-68
2022/06/25 09:05:54;;;;;;;4.60;2.10;;;22.90;99.90;;;;;;4847846;29;20128;-67
2022/06/25 09:08:22;;;;;;;4.22;1.90;;;22.90;99.90;;;;;;4844032;29;20064;-67
2022/06/25 09:10:53;;;;;;;3.72;2.00;;;23.00;99.90;;;;;;4846097;29;20057;-67
2022/06/25 09:13:27;;;;;;;3.60;2.25;;;23.20;99.90;;;;;;4851335;29;20041;-69
2022/06/25 09:15:54;;;;;;;4.65;2.22;;;23.30;99.90;;;;;;4854763;29;20122;-69
2022/06/25 09:18:21;;;;;;;4.75;2.47;;;23.50;99.90;;;;;;4858469;29;20046;-68
2022/06/25 09:21:01;;;;;;;6.63;2.70;;;23.70;99.90;;;;;;4842063;29;20042;-68
2022/06/25 09:23:33;;;;;;;3.13;1.92;;;24.10;99.90;;;;;;4849140;29;20045;-67
2022/06/25 09:26:08;;;;;;;7.72;1.65;;;24.20;99.90;;;;;;4840087;29;20049;-68
2022/06/25 09:28:41;;;;;;;4.13;1.65;;;24.10;99.90;;;;;;4848958;29;20048;-67
2022/06/25 09:31:09;;;;;;;3.97;2.08;;;23.70;99.90;;;;;;4857626;29;20052;-70
2022/06/25 09:33:39;;;;;;;3.90;2.35;;;23.80;99.90;;;;;;4854719;29;20042;-68
2022/06/25 09:36:10;;;;;;;4.40;1.55;;;24.00;99.90;;;;;;4847670;29;20063;-66
2022/06/25 09:38:50;;;;;;;5.38;2.80;;;24.00;99.90;;;;;;4856018;29;20124;-69
2022/06/25 09:41:17;;;;;;;3.42;2.15;;;23.90;99.90;;;;;;4850197;29;20064;-68
2022/06/25 09:43:47;;;;;;;2.58;1.33;;;24.40;99.90;;;;;;4854647;29;20124;-69
2022/06/25 09:46:15;;;;;;;3.47;1.50;;;25.00;99.90;;;;;;4857496;29;20041;-67
2022/06/25 09:48:43;;;;;;;3.53;1.60;;;25.40;99.90;;;;;;4854775;29;20053;-68
2022/06/25 09:51:28;;;;;;;2.95;1.45;;;25.40;99.90;;;;;;4841721;29;20080;-68
2022/06/25 09:53:58;;;;;;;3.25;1.33;;;25.40;99.90;;;;;;4850020;29;20054;-67
2022/06/25 09:56:30;;;;;;;3.75;1.48;;;25.50;99.90;;;;;;4857946;29;20051;-69
2022/06/25 09:58:58;;;;;;;3.95;1.60;;;25.30;99.90;;;;;;4856966;29;20132;-67
2022/06/25 10:01:30;;;;;;;4.85;1.48;;;25.10;99.90;;;;;;4847477;29;20484;-68
2022/06/25 10:04:03;;;;;;;2.60;1.60;;;25.00;99.90;;;;;;4847930;29;20057;-67
2022/06/25 10:06:35;;;;;;;6.03;1.73;;;25.00;99.90;;;;;;4857843;29;20519;-68
2022/06/25 10:09:03;;;;;;;;;;;25.20;99.90;;;;;;4857908;29;20124;-68
2022/06/25 10:11:31;;;;;;;2.70;1.45;;;25.50;99.90;;;;;;4870773;29;19928;-68
2022/06/25 10:13:58;;;;;;;4.53;1.48;;;25.10;99.90;;;;;;4852118;29;20428;-70
2022/06/25 10:16:27;;;;;;;2.78;1.27;;;24.90;99.90;;;;;;4857643;29;20520;-69
2022/06/25 10:18:55;;;;;;;2.55;1.30;;;24.90;99.90;;;;;;4850907;29;20049;-69
2022/06/25 10:21:24;;;;;;;2.35;1.30;;;24.90;99.90;;;;;;4856826;29;20522;-69
2022/06/25 10:24:04;;;;;;;3.08;1.40;;;25.00;99.90;;;;;;4857351;29;20474;-70
2022/06/25 10:26:33;;;;;;;2.65;1.45;;;24.90;99.90;;;;;;4847352;29;20581;-68
2022/06/25 10:29:03;;;;;;;1.95;1.25;;;24.90;99.90;;;;;;4856904;29;20041;-68
2022/06/25 10:31:31;;;;;;;2.17;1.30;;;25.20;99.90;;;;;;4842999;29;20110;-70
2022/06/25 10:34:02;;;;;;;3.50;1.48;;;25.50;99.90;;;;;;4836992;29;20049;-70
2022/06/25 10:36:47;;;;;;;3.25;1.33;;;25.70;99.90;;;;;;4850578;29;20068;-68
2022/06/25 10:39:27;;;;;;;3.00;1.20;;;26.00;99.90;;;;;;4844260;29;20481;-69
2022/06/25 10:45:16;;;;;;;3.92;1.40;;;26.20;99.90;;;;;;4818393;29;20063;-68
2022/06/25 10:47:51;;;;;;;3.33;1.40;;;26.50;99.90;;;;;;4817764;29;20464;-69
2022/06/25 10:50:22;;;;;;;3.97;1.45;;;26.60;99.90;;;;;;4818144;29;20145;-69
2022/06/25 10:53:13;;;;;;;3.72;1.20;;;26.10;99.90;;;;;;4818133;29;20114;-68
2022/06/25 10:55:47;;;;;;;3.25;1.40;;;26.10;99.90;;;;;;4808781;29;20594;-69
2022/06/25 10:58:18;;;;;;;3.00;1.15;;;26.20;99.90;;;;;;4818425;29;20085;-69
2022/06/25 11:00:58;;;;;;;2.15;1.20;;;26.50;99.90;;;;;;4816073;29;20058;-68
2022/06/25 11:03:29;;;;;;;2.63;1.25;;;26.90;99.90;;;;;;4818173;29;20050;-68
2022/06/25 11:05:59;;;;;;;2.00;1.20;;;27.20;99.90;;;;;;4800778;29;20206;-68
2022/06/25 11:08:36;;;;;;;2.95;1.40;;;27.20;99.90;;;;;;4817747;29;20693;-70
2022/06/25 11:11:06;;;;;;;2.63;1.50;;;26.70;99.90;;;;;;4816593;29;20543;-67
2022/06/25 11:13:33;;;;;;;2.38;1.08;;;27.00;99.90;;;;;;4816432;29;20148;-68
2022/06/25 11:16:12;;;;;;;3.15;1.38;;;26.90;99.90;;;;;;4817188;29;20050;-70
2022/06/25 11:18:57;;;;;;;5.53;1.60;;;26.70;99.90;;;;;;4822396;29;20059;-67
2022/06/25 11:21:27;;;;;;;2.47;1.20;;;26.20;99.90;;;;;;4856168;29;20580;-69
2022/06/25 11:24:14;;;;;;;2.42;1.20;;;26.30;99.90;;;;;;4855456;29;20086;-69
2022/06/25 11:29:47;;;;;;;4.95;1.63;;;26.10;99.90;;;;;;4858338;29;20050;-68
2022/06/25 11:32:22;;;;;;;2.35;1.10;;;26.80;99.90;;;;;;4821921;29;20132;-67
2022/06/25 11:34:58;;;;;;;2.72;1.38;;;27.50;99.90;;;;;;4844122;29;20050;-68
2022/06/25 11:37:26;;;;;;;2.72;1.25;;;27.40;99.90;;;;;;4856394;29;20072;-67
2022/06/25 11:39:54;;;;;;;1.73;1.15;;;27.50;99.90;;;;;;4855629;29;20543;-67
2022/06/25 11:42:21;;;;;;;4.80;1.95;;;27.70;99.90;;;;;;4848637;29;20135;-66
2022/06/25 11:44:56;;;;;;;2.75;1.40;;;28.00;99.90;;;;;;4855853;29;20137;-68
2022/06/25 11:47:29;;;;;;;1.50;1.00;;;27.80;99.90;;;;;;4855576;29;20501;-68
2022/06/25 11:49:58;;;;;;;3.30;1.30;;;27.80;99.90;;;;;;4856382;29;20499;-68
2022/06/25 11:52:26;;;;;;;2.10;1.15;;;28.10;99.90;;;;;;4839252;29;20061;-67
2022/06/25 11:54:54;;;;;;;3.45;1.30;;;28.40;99.90;;;;;;4852500;29;20053;-67
2022/06/25 11:57:24;;;;;;;5.22;1.55;;;28.60;99.90;;;;;;4851729;29;20090;-67
2022/06/25 11:59:55;;;;;;;2.97;1.05;;;28.90;99.90;;;;;;4855024;29;20556;-66
2022/06/25 12:02:24;;;;;;;3.05;1.20;;;29.20;99.90;;;;;;4845779;29;20042;-66
2022/06/25 12:04:55;;;;;;;3.20;1.05;;;29.80;99.90;;;;;;4848358;29;20042;-66
2022/06/25 12:07:33;;;;;;;2.65;1.58;;;29.90;99.90;;;;;;4842907;29;20050;-66
2022/06/25 12:10:12;;;;;;;3.08;1.40;;;30.20;99.90;;;;;;4841300;29;20045;-66
2022/06/25 12:12:40;;;;;;;2.47;1.38;;;30.60;99.90;;;;;;4842761;29;20412;-66
2022/06/25 12:15:10;;;;;;;2.60;1.20;;;30.10;99.90;;;;;;4846825;29;20037;-66
2022/06/25 12:17:43;;;;;;;3.10;1.20;;;29.90;99.90;;;;;;4846480;29;20577;-66
2022/06/25 12:20:14;;;;;;;1.95;1.23;;;30.20;99.90;;;;;;4846668;29;20042;-65
2022/06/25 12:22:52;;;;;;;2.90;1.30;;;29.90;99.90;;;;;;4846695;29;20445;-66
2022/06/25 12:25:24;;;;;;;2.33;1.35;;;29.80;99.90;;;;;;4835208;29;20053;-66
2022/06/25 12:27:52;;;;;;;;;;;29.60;99.90;;;;;;4850049;29;20525;-67
2022/06/25 12:30:32;;;;;;;4.10;1.00;;;29.40;99.90;;;;;;4854778;29;20404;-67
2022/06/25 12:33:13;;;;;;;4.22;1.23;;;28.80;99.90;;;;;;4841019;29;20050;-66
2022/06/25 12:35:45;;;;;;;3.72;1.23;;;28.20;99.90;;;;;;4841070;29;20052;-65
2022/06/25 12:38:15;;;;;;;4.93;1.20;;;28.00;99.90;;;;;;4840908;29;20049;-66
2022/06/25 12:40:47;;;;;;;2.00;1.30;;;28.10;99.90;;;;;;4840648;29;20049;-67
2022/06/25 12:43:16;;;;;;;2.58;1.38;;;27.90;99.90;;;;;;4853037;29;20065;-67
2022/06/25 12:45:46;;;;;;;2.42;1.13;;;28.00;99.90;;;;;;4854181;29;20041;-66
2022/06/25 12:48:34;;;;;;;3.17;1.38;;;27.90;99.90;;;;;;4840837;29;20053;-67
2022/06/25 12:51:13;;;;;;;2.33;1.30;;;28.00;99.90;;;;;;4841232;29;20118;-67
2022/06/25 12:53:42;;;;;;;1.88;1.10;;;28.30;99.90;;;;;;4840985;29;20506;-66
2022/06/25 12:56:11;;;;;;;4.35;1.17;;;28.90;99.90;;;;;;4840681;29;20488;-66
2022/06/25 12:58:40;;;;;;;2.90;1.40;;;29.80;99.90;;;;;;4840548;29;20061;-67
2022/06/25 13:01:29;;;;;;;2.88;1.45;;;31.00;99.90;;;;;;4852282;29;20492;-66
2022/06/25 13:03:56;;;;;;;2.05;1.13;;;32.00;99.90;;;;;;4840380;29;20114;-66
2022/06/25 13:06:24;;;;;;;2.58;1.30;;;32.60;99.90;;;;;;4842977;29;20505;-67
2022/06/25 13:08:51;;;;;;;2.80;1.42;;;33.60;99.90;;;;;;4841511;29;20572;-66
2022/06/25 13:11:23;;;;;;;3.35;1.02;;;34.30;97.80;;;;;;4854132;29;20045;-67
2022/06/25 13:13:51;;;;;;;4.53;1.00;;;33.70;96.70;;;;;;4846585;29;20050;-67
2022/06/25 13:16:18;;;;;;;1.77;0.95;;;33.40;96.60;;;;;;4838876;29;20505;-66